Time;durP1;ratioP1;P1;durP2;ratioP2;P2;SDS_P1;SDS_P2;PMS_P1;PMS_P2;Temp;Humidity;BMP_temperature;BMP_pressure;BME280_temperature;BME280_humidity;BME280_pressure;Samples;Min_cycle;Max_cycle;Signal;HPM_P1;HPM_P2
2022/04/26 03:37:08;;;;;;;17.10;14.70;;;;;;;8.16;73.26;100277.61;110702;1252;23036;-76
2022/04/26 03:39:38;;;;;;;15.30;13.50;;;;;;;8.17;73.19;100281.07;110597;1252;22732;-76
2022/04/26 03:42:08;;;;;;;15.70;13.80;;;;;;;8.18;73.34;100285.49;110616;1254;22023;-77
2022/04/26 03:44:37;;;;;;;20.90;14.40;;;;;;;8.19;73.28;100284.15;110347;1252;21960;-77
2022/04/26 03:47:07;;;;;;;15.20;13.70;;;;;;;8.19;73.31;100285.53;110522;1252;21964;-77
2022/04/26 03:49:37;;;;;;;17.20;13.80;;;;;;;8.18;73.20;100286.70;109913;1258;22925;-76
2022/04/26 03:52:07;;;;;;;15.30;13.70;;;;;;;8.17;73.12;100285.98;109899;1258;21983;-77
2022/04/26 03:54:37;;;;;;;16.20;14.20;;;;;;;8.17;73.09;100286.51;109938;1258;23584;-77
2022/04/26 03:57:06;;;;;;;16.30;14.60;;;;;;;8.17;73.08;100288.06;109832;1258;21958;-77
2022/04/26 03:59:35;;;;;;;16.90;15.10;;;;;;;8.16;73.04;100292.48;109930;1258;21971;-77
2022/04/26 04:02:05;;;;;;;15.70;14.10;;;;;;;8.15;73.13;100294.22;109996;1258;23015;-77
2022/04/26 04:04:36;;;;;;;18.60;14.10;;;;;;;8.14;73.17;100300.43;110003;1258;22068;-77
2022/04/26 04:07:07;;;;;;;16.40;14.70;;;;;;;8.15;73.25;100304.02;110275;1253;23074;-74
2022/04/26 04:09:36;;;;;;;16.60;14.60;;;;;;;8.17;73.22;100300.55;110715;1252;23048;-75
2022/04/26 04:12:07;;;;;;;18.00;14.30;;;;;;;8.18;73.10;100300.89;110478;1256;21971;-75
2022/04/26 04:14:37;;;;;;;20.10;15.50;;;;;;;8.19;73.05;100303.95;110335;1256;22988;-76
2022/04/26 04:17:08;;;;;;;14.90;13.30;;;;;;;8.21;72.99;100308.50;110455;1256;21954;-76
2022/04/26 04:19:38;;;;;;;15.70;13.40;;;;;;;8.20;72.96;100312.14;110485;1256;21961;-76
2022/04/26 04:22:14;;;;;;;16.10;14.50;;;;;;;8.19;72.77;100318.06;110339;1257;21972;-76
2022/04/26 04:24:43;;;;;;;18.10;14.70;;;;;;;8.15;72.75;100322.64;110271;1256;23992;-75
2022/04/26 04:27:12;;;;;;;22.10;15.20;;;;;;;8.11;72.76;100324.05;110289;1257;23663;-76
2022/04/26 04:29:46;;;;;;;16.90;15.00;;;;;;;8.11;72.79;100327.64;110420;1253;21965;-76
2022/04/26 04:32:17;;;;;;;23.20;14.80;;;;;;;8.12;72.84;100334.02;110601;1251;21976;-76
2022/04/26 04:34:46;;;;;;;20.20;15.20;;;;;;;8.14;72.86;100337.25;110764;1251;23613;-75
2022/04/26 04:37:15;;;;;;;18.40;14.90;;;;;;;8.15;72.75;100337.55;110667;1251;22061;-76
2022/04/26 04:39:47;;;;;;;;;;;;;;;8.15;72.76;100340.52;110633;1251;21956;-76
2022/04/26 04:42:16;;;;;;;17.60;14.60;;;;;;;8.11;73.02;100343.06;110595;1252;21973;-77
2022/04/26 04:44:48;;;;;;;18.00;14.70;;;;;;;8.11;72.96;100339.58;110190;1258;23698;-76
2022/04/26 04:47:17;;;;;;;16.90;14.70;;;;;;;8.12;72.89;100343.30;109993;1258;21987;-76
2022/04/26 04:49:46;;;;;;;16.70;15.00;;;;;;;8.11;72.73;100344.25;109927;1258;21974;-75
2022/04/26 04:52:17;;;;;;;17.30;14.60;;;;;;;8.11;72.78;100346.52;109869;1257;23029;-76
2022/04/26 04:54:47;;;;;;;17.90;16.00;;;;;;;8.09;72.69;100349.20;109993;1258;21971;-76
2022/04/26 04:57:16;;;;;;;20.80;15.10;;;;;;;8.07;72.53;100352.23;110210;1258;21972;-76
2022/04/26 04:59:49;;;;;;;20.40;15.00;;;;;;;8.03;72.50;100358.77;109835;1258;22124;-75
2022/04/26 05:02:18;;;;;;;17.50;15.40;;;;;;;7.98;72.54;100362.15;109703;1255;21965;-76
2022/04/26 05:04:50;;;;;;;17.30;15.20;;;;;;;7.95;72.48;100362.80;110610;1250;22026;-76
2022/04/26 05:07:19;;;;;;;19.20;16.80;;;;;;;7.96;72.68;100368.23;110727;1252;22011;-76
2022/04/26 05:09:52;;;;;;;15.30;13.30;;;;;;;7.97;72.64;100369.15;110681;1251;22027;-75
2022/04/26 05:12:21;;;;;;;17.70;14.00;;;;;;;7.96;72.56;100369.60;110251;1258;21977;-76
2022/04/26 05:14:51;;;;;;;17.60;14.80;;;;;;;7.96;72.63;100369.80;109555;1263;23710;-76
2022/04/26 05:17:20;;;;;;;17.70;13.80;;;;;;;7.96;72.62;100371.85;109784;1263;21976;-75
2022/04/26 05:19:49;;;;;;;17.60;13.60;;;;;;;7.97;72.66;100377.41;109610;1262;22501;-76
2022/04/26 05:22:18;;;;;;;18.60;14.00;;;;;;;7.96;72.60;100377.13;109287;1264;21981;-77
2022/04/26 05:24:54;;;;;;;16.00;14.20;;;;;;;7.96;72.51;100381.86;109290;1263;21976;-76
2022/04/26 05:27:34;;;;;;;15.80;14.10;;;;;;;7.96;72.44;100383.81;109820;1263;21972;-76
2022/04/26 05:30:03;;;;;;;17.40;15.30;;;;;;;7.96;72.49;100382.54;109674;1257;21934;-76
2022/04/26 05:32:33;;;;;;;17.60;15.90;;;;;;;7.96;72.63;100387.79;110399;1253;23702;-76
2022/04/26 05:35:03;;;;;;;17.50;15.60;;;;;;;7.99;72.65;100390.54;110576;1253;23657;-77
2022/04/26 05:37:33;;;;;;;17.80;15.80;;;;;;;8.01;72.65;100390.80;110650;1253;21968;-75
2022/04/26 05:40:02;;;;;;;18.20;15.20;;;;;;;8.05;72.66;100391.55;110946;1251;23608;-77
2022/04/26 05:42:36;;;;;;;21.90;17.40;;;;;;;8.09;72.69;100392.77;110935;1250;21965;-77
2022/04/26 05:45:06;;;;;;;18.80;14.50;;;;;;;8.13;72.69;100396.86;110557;1252;22999;-76
2022/04/26 05:47:42;;;;;;;17.30;14.40;;;;;;;8.16;72.49;100397.09;110629;1253;22729;-75
2022/04/26 05:50:12;;;;;;;18.30;16.30;;;;;;;8.13;72.22;100397.52;110598;1251;23668;-76
2022/04/26 05:52:47;;;;;;;17.20;14.50;;;;;;;8.12;72.14;100398.89;110654;1253;22188;-76
2022/04/26 05:55:16;;;;;;;20.20;14.30;;;;;;;8.13;72.00;100402.45;110358;1257;23690;-76
2022/04/26 05:57:45;;;;;;;16.60;14.00;;;;;;;8.17;72.03;100400.70;109994;1258;23780;-75
2022/04/26 06:00:18;;;;;;;16.60;13.10;;;;;;;8.21;71.74;100405.35;110227;1258;22064;-75
2022/04/26 06:02:49;;;;;;;14.60;13.10;;;;;;;8.21;71.48;100403.02;110032;1258;21964;-77
2022/04/26 06:05:21;;;;;;;15.00;13.10;;;;;;;8.22;71.29;100406.79;110064;1257;22268;-75
2022/04/26 06:07:50;;;;;;;13.90;12.20;;;;;;;8.24;71.21;100404.49;110005;1258;21965;-76
2022/04/26 06:10:19;;;;;;;15.50;13.90;;;;;;;8.27;71.24;100407.80;110072;1258;21978;-76
2022/04/26 06:12:48;;;;;;;20.90;14.10;;;;;;;8.35;71.38;100403.48;110397;1251;21969;-75
2022/04/26 06:15:17;;;;;;;17.30;13.60;;;;;;;8.48;71.43;100408.50;110922;1251;21963;-76
2022/04/26 06:17:47;;;;;;;13.60;12.20;;;;;;;8.59;71.11;100411.05;110587;1253;21974;-75
2022/04/26 06:20:16;;;;;;;18.80;15.30;;;;;;;8.69;70.77;100414.09;110549;1253;23487;-76
2022/04/26 06:22:46;;;;;;;19.60;16.50;;;;;;;8.79;70.51;100416.69;110787;1251;21968;-77
2022/04/26 06:25:15;;;;;;;19.40;15.20;;;;;;;8.82;69.94;100418.63;110799;1252;21962;-77
2022/04/26 06:27:47;;;;;;;16.60;14.80;;;;;;;8.79;69.42;100416.85;110629;1253;22045;-76
2022/04/26 06:30:19;;;;;;;14.30;12.20;;;;;;;8.69;69.01;100419.56;110697;1252;23744;-75
2022/04/26 06:32:48;;;;;;;14.10;11.10;;;;;;;8.63;69.02;100420.20;110626;1252;23017;-75
2022/04/26 06:35:18;;;;;;;10.50;9.40;;;;;;;8.60;69.01;100425.02;110705;1252;23581;-75
2022/04/26 06:37:47;;;;;;;10.40;7.90;;;;;;;8.61;69.12;100425.88;110732;1252;23755;-76
2022/04/26 06:40:17;;;;;;;10.70;8.30;;;;;;;8.63;69.23;100424.73;110621;1252;23028;-76
2022/04/26 06:42:52;;;;;;;10.00;7.40;;;;;;;8.71;69.34;100428.86;110797;1251;21972;-76
2022/04/26 06:45:22;;;;;;;9.70;7.10;;;;;;;8.81;69.33;100431.19;110583;1253;21985;-77
2022/04/26 06:47:54;;;;;;;12.10;9.20;;;;;;;8.90;69.31;100430.99;108243;1251;3169227;-77
2022/04/26 06:50:23;;;;;;;13.40;10.30;;;;;;;8.96;68.88;100434.58;110517;1251;23670;-76
2022/04/26 06:52:53;;;;;;;11.20;9.40;;;;;;;9.01;68.58;100435.76;110547;1252;21974;-75
2022/04/26 06:55:22;;;;;;;14.50;10.20;;;;;;;9.01;68.25;100437.80;110535;1251;21973;-77
2022/04/26 06:57:51;;;;;;;14.20;10.40;;;;;;;9.03;68.42;100440.02;110641;1253;22753;-75
2022/04/26 07:00:20;;;;;;;10.50;9.40;;;;;;;9.04;68.06;100439.96;110671;1253;21986;-75
2022/04/26 07:02:49;;;;;;;12.00;10.80;;;;;;;9.04;67.96;100440.73;110617;1253;21976;-75
2022/04/26 07:05:27;;;;;;;15.70;13.40;;;;;;;9.07;68.07;100442.45;110576;1253;22976;-76
2022/04/26 07:07:56;;;;;;;13.30;11.90;;;;;;;9.12;67.98;100445.29;110578;1253;23045;-75
2022/04/26 07:10:28;;;;;;;17.60;13.70;;;;;;;9.16;67.82;100448.18;110805;1252;22756;-76
2022/04/26 07:12:57;;;;;;;;;;;;;;;9.25;67.85;100450.30;110688;1253;21941;-76
2022/04/26 07:15:27;;;;;;;15.30;11.60;;;;;;;9.25;67.79;100448.52;110769;1251;23690;-75
2022/04/26 07:17:59;;;;;;;11.80;10.70;;;;;;;9.31;67.86;100448.81;110696;1252;22010;-75
2022/04/26 07:20:30;;;;;;;;;;;;;;;9.41;67.76;100448.30;110553;1253;21960;-77
2022/04/26 07:23:00;;;;;;;12.20;10.80;;;;;;;9.45;67.65;100452.60;110758;1252;21974;-76
2022/04/26 07:25:32;;;;;;;15.60;11.50;;;;;;;9.50;67.58;100457.90;110472;1257;21968;-76
2022/04/26 07:28:01;;;;;;;12.00;10.90;;;;;;;9.57;67.33;100458.95;110041;1258;21974;-76
2022/04/26 07:30:44;;;;;;;13.40;11.00;;;;;;;9.66;67.30;100459.09;110331;1257;21973;-76
2022/04/26 07:36:00;;;;;;;20.00;15.90;;;;;;;9.86;66.68;100460.54;110303;1257;23134;-75
2022/04/26 07:38:30;;;;;;;18.60;14.40;;;;;;;9.99;66.63;100466.31;110255;1258;21962;-75
2022/04/26 07:40:59;;;;;;;19.10;15.40;;;;;;;10.13;66.51;100465.08;109985;1257;21972;-76
2022/04/26 07:43:28;;;;;;;13.20;11.90;;;;;;;10.26;66.31;100471.45;110461;1253;23957;-76
2022/04/26 07:45:57;;;;;;;19.30;12.90;;;;;;;10.36;65.75;100470.92;110577;1253;21972;-76
2022/04/26 07:48:43;;;;;;;15.60;13.10;;;;;;;10.44;65.31;100473.79;110045;1258;21970;-77
2022/04/26 07:51:12;;;;;;;15.70;13.70;;;;;;;10.61;65.90;100472.31;109882;1259;22654;-77
2022/04/26 07:53:41;;;;;;;12.80;11.40;;;;;;;10.90;66.11;100473.19;110234;1258;21958;-76
2022/04/26 07:56:13;;;;;;;14.20;12.20;;;;;;;11.12;65.14;100473.59;110172;1258;22072;-76
2022/04/26 07:58:45;;;;;;;10.20;9.20;;;;;;;11.30;64.35;100476.92;110210;1256;22078;-80
2022/04/26 08:01:15;;;;;;;11.50;10.00;;;;;;;11.44;63.53;100481.05;109897;1258;22019;-78
2022/04/26 08:03:46;;;;;;;11.70;10.40;;;;;;;11.51;62.65;100483.08;110178;1259;22097;-77
2022/04/26 08:06:15;;;;;;;12.10;10.10;;;;;;;11.56;62.41;100483.56;110286;1253;22017;-78
2022/04/26 08:08:47;;;;;;;12.10;10.80;;;;;;;11.76;62.95;100482.80;110735;1252;21964;-79
2022/04/26 08:11:17;;;;;;;9.90;9.00;;;;;;;12.16;63.86;100486.34;110815;1253;21961;-80
2022/04/26 08:13:48;;;;;;;10.90;9.60;;;;;;;12.68;64.00;100489.26;110932;1252;22041;-79
2022/04/26 08:16:19;;;;;;;10.80;9.40;;;;;;;13.18;62.63;100485.88;111026;1253;22289;-79
2022/04/26 08:18:49;;;;;;;13.20;9.00;;;;;;;13.56;60.68;100488.36;110565;1253;21961;-79
2022/04/26 08:21:19;;;;;;;9.50;8.10;;;;;;;13.83;58.68;100490.30;110686;1253;24167;-80
2022/04/26 08:29:24;;;;;;;10.30;8.20;;;;;;;14.84;56.88;100498.92;110426;1257;21975;-78
2022/04/26 08:31:55;;;;;;;7.60;6.90;;;;;;;15.35;57.09;100503.10;109954;1258;22210;-75
2022/04/26 08:34:26;;;;;;;9.20;7.00;;;;;;;15.93;56.04;100505.16;110193;1257;23068;-74
2022/04/26 08:36:55;;;;;;;9.40;8.40;;;;;;;16.37;53.68;100510.61;110135;1258;22755;-74
2022/04/26 08:39:24;;;;;;;8.70;7.90;;;;;;;16.77;52.76;100515.22;110300;1257;21974;-76
2022/04/26 08:42:00;;;;;;;9.10;8.20;;;;;;;17.21;51.61;100522.04;110284;1251;22026;-76
2022/04/26 08:44:29;;;;;;;11.80;9.10;;;;;;;17.44;49.29;100524.51;110771;1251;21962;-73
2022/04/26 08:52:51;;;;;;;10.70;9.00;;;;;;;16.48;47.73;100526.77;110745;1250;21956;-75
2022/04/26 08:55:20;;;;;;;9.20;8.10;;;;;;;16.19;48.20;100525.64;110817;1251;22848;-77
2022/04/26 08:57:49;;;;;;;10.50;8.70;;;;;;;16.11;49.71;100526.34;110433;1256;22358;-76
2022/04/26 09:00:19;;;;;;;10.30;8.50;;;;;;;16.22;49.51;100530.19;110336;1256;23851;-75
2022/04/26 09:03:07;;;;;;;10.60;9.30;;;;;;;16.01;48.12;100532.15;110244;1256;23645;-77
2022/04/26 09:05:37;;;;;;;12.20;11.00;;;;;;;15.68;48.24;100532.12;110075;1256;23090;-79
2022/04/26 09:08:21;;;;;;;11.10;10.00;;;;;;;15.48;48.93;100532.39;109704;1263;22341;-77
2022/04/26 09:10:50;;;;;;;11.30;10.20;;;;;;;15.35;49.07;100530.88;109394;1265;24176;-76
2022/04/26 09:13:24;;;;;;;15.00;11.10;;;;;;;15.53;51.18;100529.31;109737;1263;21971;-77
2022/04/26 09:15:56;;;;;;;13.00;10.60;;;;;;;16.01;51.62;100528.40;109048;1264;21979;-76
2022/04/26 09:18:30;;;;;;;10.20;9.30;;;;;;;16.29;49.42;100534.56;109454;1264;22011;-76
2022/04/26 09:21:10;;;;;;;9.90;8.80;;;;;;;16.27;47.53;100536.32;109384;1264;21994;-77
2022/04/26 09:23:39;;;;;;;10.30;8.90;;;;;;;16.01;46.86;100536.64;109464;1264;22200;-76
2022/04/26 09:26:11;;;;;;;11.50;10.00;;;;;;;15.77;47.30;100534.20;109787;1259;23587;-77
2022/04/26 09:28:50;;;;;;;9.90;9.00;;;;;;;15.57;47.52;100533.92;110292;1259;23689;-77
2022/04/26 09:31:32;;;;;;;9.20;8.30;;;;;;;15.50;48.78;100535.72;110266;1259;21984;-77
2022/04/26 09:34:11;;;;;;;11.80;10.60;;;;;;;15.59;48.84;100534.48;109721;1256;23037;-77
2022/04/26 09:36:50;;;;;;;10.40;9.20;;;;;;;15.58;48.85;100530.12;110234;1256;23317;-77
2022/04/26 09:39:25;;;;;;;11.30;9.50;;;;;;;15.57;48.57;100532.66;110223;1256;23433;-77
2022/04/26 09:42:29;;;;;;;8.10;7.40;;;;;;;15.52;48.75;100530.48;110534;1256;21976;-77
2022/04/26 09:45:10;;;;;;;10.00;8.70;;;;;;;15.58;49.13;100533.11;109224;1265;22926;-77
2022/04/26 09:47:41;;;;;;;9.40;7.10;;;;;;;15.71;48.73;100529.89;109313;1265;22057;-76
2022/04/26 09:50:15;;;;;;;8.60;7.80;;;;;;;15.70;48.18;100530.54;109522;1265;23055;-77
2022/04/26 09:52:46;;;;;;;8.60;7.70;;;;;;;15.68;48.13;100526.31;109978;1259;22021;-77
2022/04/26 09:55:16;;;;;;;9.90;7.90;;;;;;;15.63;47.45;100524.33;109456;1265;21981;-77
2022/04/26 09:57:49;;;;;;;8.90;7.90;;;;;;;15.52;47.52;100526.27;109298;1265;22010;-76
2022/04/26 10:00:19;;;;;;;8.00;7.20;;;;;;;15.46;47.94;100523.77;109437;1265;23676;-76
2022/04/26 10:02:56;;;;;;;7.70;6.80;;;;;;;15.76;49.38;100524.02;109529;1265;21983;-76
2022/04/26 10:05:37;;;;;;;9.80;8.40;;;;;;;16.38;49.60;100526.65;109589;1265;23719;-76
2022/04/26 10:08:11;;;;;;;11.00;8.20;;;;;;;17.00;47.78;100523.07;109170;1265;23572;-76
2022/04/26 10:10:42;;;;;;;8.70;7.30;;;;;;;17.22;46.16;100523.63;109633;1262;23719;-77
2022/04/26 10:13:42;;;;;;;7.90;6.90;;;;;;;17.41;44.80;100526.08;110121;1256;24111;-78
2022/04/26 10:16:21;;;;;;;9.20;6.90;;;;;;;17.50;44.62;100528.73;110551;1251;22720;-77
2022/04/26 10:19:04;;;;;;;9.70;7.10;;;;;;;17.71;44.31;100525.77;110651;1251;21977;-76
2022/04/26 10:21:38;;;;;;;10.80;8.50;;;;;;;17.69;42.86;100526.23;110733;1250;21977;-77
2022/04/26 10:24:18;;;;;;;11.10;7.20;;;;;;;17.45;42.39;100530.83;110744;1251;23126;-77
2022/04/26 10:26:52;;;;;;;10.20;6.80;;;;;;;17.15;42.49;100531.27;110048;1259;22013;-77
2022/04/26 10:29:24;;;;;;;10.50;6.60;;;;;;;16.82;42.77;100532.83;110044;1257;23765;-77
2022/04/26 10:32:00;;;;;;;10.80;7.30;;;;;;;16.56;43.22;100531.95;110280;1257;21975;-78
2022/04/26 10:34:34;;;;;;;14.40;6.80;;;;;;;16.60;45.06;100533.60;110111;1257;22371;-76
2022/04/26 10:37:06;;;;;;;6.60;6.00;;;;;;;16.91;45.39;100533.70;110298;1259;21967;-76
2022/04/26 10:39:46;;;;;;;8.10;6.20;;;;;;;17.19;44.68;100529.09;110320;1259;22270;-77
2022/04/26 10:42:15;;;;;;;6.60;5.90;;;;;;;17.38;43.58;100527.61;109835;1257;22009;-76
2022/04/26 10:44:48;;;;;;;11.20;5.80;;;;;;;17.36;42.35;100526.09;110349;1251;21959;-77
2022/04/26 10:47:20;;;;;;;8.90;6.20;;;;;;;17.10;41.47;100527.05;110757;1250;24168;-77
2022/04/26 10:49:58;;;;;;;6.30;5.40;;;;;;;16.78;41.54;100526.17;110933;1250;22179;-77
2022/04/26 10:52:36;;;;;;;6.50;5.60;;;;;;;16.61;42.43;100524.29;110184;1257;23616;-77
2022/04/26 10:55:09;;;;;;;6.80;6.10;;;;;;;16.60;43.01;100521.88;109765;1259;23587;-77
2022/04/26 10:57:42;;;;;;;16.80;7.00;;;;;;;16.63;43.07;100527.62;109934;1262;21984;-76
2022/04/26 11:00:25;;;;;;;6.70;6.00;;;;;;;16.63;42.52;100525.40;109783;1259;21998;-76
2022/04/26 11:03:04;;;;;;;7.90;6.00;;;;;;;16.48;41.67;100524.88;109942;1261;23726;-77
2022/04/26 11:05:34;;;;;;;12.90;6.70;;;;;;;16.23;41.63;100530.19;109949;1260;23156;-76
2022/04/26 11:08:04;;;;;;;18.70;8.70;;;;;;;16.03;42.00;100524.91;109847;1258;22018;-76
2022/04/26 11:13:32;;;;;;;6.90;6.00;;;;;;;15.89;43.45;100520.42;110621;1251;22009;-77
2022/04/26 11:16:13;;;;;;;6.80;6.10;;;;;;;15.92;43.44;100523.27;110666;1253;25070;-75
2022/04/26 11:18:43;;;;;;;5.90;5.30;;;;;;;15.85;43.04;100522.50;110766;1251;23699;-76
2022/04/26 11:21:14;;;;;;;6.20;5.40;;;;;;;15.76;42.92;100520.91;110710;1251;23581;-76
2022/04/26 11:29:36;;;;;;;7.20;6.30;;;;;;;15.62;43.17;100517.61;109603;1262;23590;-76
2022/04/26 11:32:07;;;;;;;7.70;6.10;;;;;;;15.62;43.30;100519.13;109776;1264;23610;-77
2022/04/26 11:34:48;;;;;;;8.60;7.10;;;;;;;15.63;43.74;100523.26;109349;1265;21975;-76
2022/04/26 11:37:17;;;;;;;7.60;5.40;;;;;;;15.59;43.70;100526.60;109344;1265;24454;-77
2022/04/26 11:39:46;;;;;;;7.60;5.90;;;;;;;15.53;43.48;100526.45;109769;1264;22767;-77
2022/04/26 11:42:16;;;;;;;6.60;6.00;;;;;;;15.47;43.24;100529.89;109906;1257;23584;-78
2022/04/26 11:45:06;;;;;;;6.20;5.30;;;;;;;15.36;43.07;100532.35;110598;1251;23691;-77
2022/04/26 11:47:49;;;;;;;8.60;6.20;;;;;;;15.23;43.34;100529.89;110818;1252;22934;-76
2022/04/26 11:50:31;;;;;;;6.50;5.10;;;;;;;15.19;43.54;100529.33;110833;1250;23040;-77
2022/04/26 11:53:16;;;;;;;7.20;5.80;;;;;;;15.17;43.41;100528.16;110753;1253;21977;-77
2022/04/26 11:55:52;;;;;;;6.00;5.00;;;;;;;15.11;43.30;100528.04;110758;1250;22015;-77
2022/04/26 11:58:34;;;;;;;10.20;7.00;;;;;;;15.07;43.38;100523.47;110591;1250;21957;-76
2022/04/26 12:01:16;;;;;;;8.80;5.40;;;;;;;15.06;43.70;100519.12;110843;1250;21960;-76
2022/04/26 12:03:54;;;;;;;6.50;5.90;;;;;;;15.08;43.67;100518.64;110786;1253;22020;-76
2022/04/26 12:06:32;;;;;;;8.10;5.70;;;;;;;15.07;43.42;100519.65;110520;1253;23421;-77
2022/04/26 12:09:05;;;;;;;7.40;5.90;;;;;;;15.03;43.66;100522.95;110763;1251;23033;-76
2022/04/26 12:12:28;;;;;;;7.60;5.50;;;;;;;15.03;44.07;100516.73;110695;1251;24338;-77
2022/04/26 12:15:48;;;;;;;5.30;4.80;;;;;;;15.12;44.20;100511.27;109917;1260;23680;-77
2022/04/26 12:18:18;;;;;;;5.90;5.30;;;;;;;15.19;43.82;100508.58;109959;1262;23667;-77
2022/04/26 12:21:02;;;;;;;5.80;5.20;;;;;;;15.25;43.74;100511.20;109740;1262;23689;-76
2022/04/26 12:23:31;;;;;;;5.30;4.70;;;;;;;15.37;43.84;100510.58;109796;1261;22491;-78
2022/04/26 12:26:04;;;;;;;6.00;5.30;;;;;;;15.52;43.44;100510.14;109912;1260;23642;-77
2022/04/26 12:28:45;;;;;;;4.90;4.30;;;;;;;15.62;43.04;100512.24;109832;1262;22334;-76
2022/04/26 12:31:26;;;;;;;7.10;5.40;;;;;;;15.68;42.71;100508.08;109260;1267;22024;-76
2022/04/26 12:34:32;;;;;;;6.30;5.70;;;;;;;15.63;42.61;100504.96;108477;1274;23822;-77
2022/04/26 12:37:11;;;;;;;6.40;5.80;;;;;;;15.64;43.14;100506.31;108662;1273;22112;-76
2022/04/26 12:39:48;;;;;;;5.70;5.10;;;;;;;15.68;42.94;100506.35;108773;1272;21997;-76
2022/04/26 12:42:28;;;;;;;6.80;6.10;;;;;;;15.72;42.62;100502.41;108795;1273;22604;-76
2022/04/26 12:45:06;;;;;;;9.50;5.90;;;;;;;15.76;42.72;100503.23;108821;1273;21996;-76
2022/04/26 12:50:28;;;;;;;6.40;5.40;;;;;;;15.83;42.39;100501.13;109311;1265;22073;-76
2022/04/26 12:53:06;;;;;;;6.00;5.40;;;;;;;15.82;42.34;100504.66;110224;1257;22912;-76
2022/04/26 12:55:41;;;;;;;7.60;5.20;;;;;;;15.86;42.34;100501.65;109917;1261;21995;-76
2022/04/26 12:58:13;;;;;;;6.00;4.90;;;;;;;15.94;42.23;100498.48;109700;1262;21982;-77
2022/04/26 13:00:50;;;;;;;7.00;4.70;;;;;;;16.00;42.15;100497.64;109697;1262;23584;-76
2022/04/26 13:03:22;;;;;;;6.20;5.00;;;;;;;16.05;41.91;100495.82;109832;1260;21977;-76
2022/04/26 13:06:10;;;;;;;5.70;4.60;;;;;;;16.06;41.52;100495.00;110187;1257;23573;-75
2022/04/26 13:08:59;;;;;;;7.50;4.60;;;;;;;16.00;40.89;100497.88;110481;1254;23571;-76
2022/04/26 13:11:34;;;;;;;4.50;4.00;;;;;;;15.95;40.54;100495.61;110467;1256;22029;-77
2022/04/26 13:14:04;;;;;;;4.40;4.00;;;;;;;15.94;40.45;100496.88;110644;1251;23087;-76
2022/04/26 13:16:49;;;;;;;6.10;5.00;;;;;;;15.88;40.24;100496.36;110816;1250;22036;-76
2022/04/26 13:19:19;;;;;;;8.40;4.80;;;;;;;15.80;40.23;100497.35;110849;1251;22019;-76
2022/04/26 13:21:48;;;;;;;8.60;5.50;;;;;;;15.74;40.46;100496.80;110770;1253;22038;-76
2022/04/26 13:24:18;;;;;;;6.30;5.20;;;;;;;15.70;40.14;100498.41;110800;1254;21965;-76
2022/04/26 13:26:47;;;;;;;8.40;5.20;;;;;;;15.65;39.90;100502.05;110722;1253;22056;-76
2022/04/26 13:29:16;;;;;;;7.70;4.60;;;;;;;15.62;40.05;100496.78;110961;1250;21963;-76
2022/04/26 13:31:45;;;;;;;5.40;4.30;;;;;;;15.64;40.03;100495.23;110723;1250;21960;-76
2022/04/26 13:34:14;;;;;;;4.00;3.60;;;;;;;15.66;39.88;100495.12;110460;1257;22059;-74
2022/04/26 13:37:07;;;;;;;5.10;3.50;;;;;;;15.65;39.54;100499.48;110369;1257;22028;-76
2022/04/26 13:39:39;;;;;;;5.50;4.40;;;;;;;15.63;39.26;100499.38;110324;1257;24349;-76
2022/04/26 13:42:10;;;;;;;7.30;5.60;;;;;;;15.64;39.15;100497.91;110077;1259;22023;-77
2022/04/26 13:44:40;;;;;;;4.50;3.80;;;;;;;15.63;38.70;100499.23;110499;1257;22437;-76
2022/04/26 13:47:09;;;;;;;6.90;3.80;;;;;;;15.60;38.16;100498.02;110465;1257;22074;-77
2022/04/26 13:49:40;;;;;;;6.30;5.70;;;;;;;15.60;37.93;100500.02;109978;1262;21971;-76
2022/04/26 13:52:09;;;;;;;5.50;3.40;;;;;;;15.59;37.55;100499.31;109327;1262;24486;-76
2022/04/26 13:54:38;;;;;;;4.60;3.40;;;;;;;15.56;37.34;100502.86;109695;1263;22984;-77
2022/04/26 13:57:09;;;;;;;5.00;3.70;;;;;;;15.52;37.31;100500.67;109761;1262;22079;-76
2022/04/26 13:59:38;;;;;;;6.80;6.10;;;;;;;15.48;37.19;100500.07;109361;1264;22129;-76
2022/04/26 14:02:08;;;;;;;4.20;3.30;;;;;;;15.43;36.64;100504.47;109660;1262;21972;-76
2022/04/26 14:04:39;;;;;;;3.80;3.40;;;;;;;15.36;36.55;100504.42;109781;1263;23805;-75
2022/04/26 14:07:08;;;;;;;4.00;3.30;;;;;;;15.34;36.80;100501.05;109698;1257;23053;-76
2022/04/26 14:09:40;;;;;;;7.80;5.70;;;;;;;15.32;36.54;100495.92;110194;1253;23156;-76
2022/04/26 14:12:11;;;;;;;7.10;4.70;;;;;;;15.28;36.36;100487.91;110766;1250;23561;-76
2022/04/26 14:23:05;;;;;;;5.00;3.60;;;;;;;15.31;35.59;100491.63;110493;1256;21968;-75
2022/04/26 14:25:37;;;;;;;7.30;3.20;;;;;;;15.32;35.45;100493.84;110489;1257;23574;-75
2022/04/26 14:28:09;;;;;;;7.00;3.20;;;;;;;15.34;35.47;100490.36;110033;1261;23588;-76
2022/04/26 14:30:42;;;;;;;4.20;3.10;;;;;;;15.35;35.40;100488.66;109996;1259;23107;-75
2022/04/26 14:33:13;;;;;;;4.80;3.30;;;;;;;15.37;35.30;100488.58;110082;1263;22255;-76
2022/04/26 14:35:45;;;;;;;8.90;6.50;;;;;;;15.39;35.17;100490.31;109405;1265;23716;-78
2022/04/26 14:38:14;;;;;;;5.60;3.40;;;;;;;15.39;35.00;100490.56;109161;1267;21996;-75
2022/04/26 14:40:44;;;;;;;5.00;4.30;;;;;;;15.39;35.10;100491.80;109176;1263;22876;-78
2022/04/26 14:43:29;;;;;;;3.40;3.00;;;;;;;15.41;34.78;100485.91;108928;1270;21983;-77
2022/04/26 14:46:11;;;;;;;3.10;2.60;;;;;;;15.42;34.45;100485.91;108994;1267;22979;-76
2022/04/26 14:48:41;;;;;;;3.50;2.80;;;;;;;15.43;34.16;100484.73;109492;1264;21975;-77
2022/04/26 14:51:15;;;;;;;4.20;3.20;;;;;;;15.46;34.03;100485.85;109256;1264;21988;-76
2022/04/26 14:53:46;;;;;;;3.70;3.10;;;;;;;15.44;33.78;100489.24;109232;1267;23859;-77
2022/04/26 14:56:15;;;;;;;8.50;3.70;;;;;;;15.41;33.69;100494.30;109106;1265;22096;-77
2022/04/26 14:59:06;;;;;;;5.20;3.00;;;;;;;15.35;33.66;100492.67;109505;1265;21992;-76
2022/04/26 15:01:44;;;;;;;5.70;4.80;;;;;;;15.32;33.61;100493.10;109807;1260;22021;-76
2022/04/26 15:04:15;;;;;;;5.70;4.10;;;;;;;15.26;33.66;100492.90;110152;1260;21969;-77
2022/04/26 15:06:46;;;;;;;6.50;3.90;;;;;;;15.19;33.82;100496.30;110167;1257;21966;-76
2022/04/26 15:17:48;;;;;;;4.00;3.40;;;;;;;14.89;34.26;100488.33;110010;1258;23067;-78
2022/04/26 15:20:21;;;;;;;7.50;3.20;;;;;;;14.82;34.13;100491.14;110065;1255;23078;-76
2022/04/26 15:22:56;;;;;;;4.70;3.40;;;;;;;14.74;34.13;100489.80;110506;1252;21977;-77
2022/04/26 15:25:35;;;;;;;;;;;;;;;;;;;;;
2022/04/26 15:28:09;;;;;;;5.40;2.90;;;;;;;14.73;34.35;100488.00;110203;1259;23059;-77
2022/04/26 15:31:01;;;;;;;3.90;3.30;;;;;;;14.73;34.51;100482.59;110204;1260;23677;-81
2022/04/26 15:33:31;;;;;;;4.60;3.40;;;;;;;14.74;34.32;100481.79;110297;1258;22791;-77
2022/04/26 15:36:11;;;;;;;5.00;3.00;;;;;;;14.74;34.14;100485.39;110035;1260;22755;-78
2022/04/26 15:38:50;;;;;;;8.70;3.90;;;;;;;14.72;34.14;100484.52;109869;1262;22000;-77
2022/04/26 15:41:33;;;;;;;3.80;3.30;;;;;;;14.73;34.33;100481.90;110486;1260;22762;-79
2022/04/26 15:44:09;;;;;;;5.60;4.00;;;;;;;14.74;34.22;100483.05;109637;1261;23008;-77
2022/04/26 15:46:52;;;;;;;4.20;2.90;;;;;;;14.77;34.30;100481.40;109671;1262;23793;-76
2022/04/26 15:49:26;;;;;;;3.70;3.00;;;;;;;14.83;34.13;100477.69;109573;1262;21968;-77
2022/04/26 15:51:58;;;;;;;4.10;3.10;;;;;;;14.88;33.93;100473.30;109669;1262;21995;-79
2022/04/26 15:54:28;;;;;;;9.20;4.20;;;;;;;14.94;33.91;100474.73;109280;1265;22605;-76
2022/04/26 15:56:57;;;;;;;4.30;3.60;;;;;;;14.97;33.81;100473.58;109382;1265;21994;-75
2022/04/26 15:59:29;;;;;;;6.30;4.50;;;;;;;14.98;33.76;100475.19;109108;1267;23576;-73
2022/04/26 16:02:04;;;;;;;11.20;5.10;;;;;;;14.99;33.81;100475.35;109058;1267;22155;-74